North Avondale, Colorado
Current Conditions -  °F | °C
As of 4:34 PM on Monday 22 Dec 2014 (Local Time) from KPUB Reporting Station
Light Snow Light Snow  
Wind Chill: -1°   Ceiling: 2000
Heat Index:   Visibility: 7mi
Dew Point:   Wind: 6mph
Humidity: 92%   Direction: 360°N
Pressure: 29.73"   Gusts: NA
Location:  38.0104°N, 104.392°W
Report Text: KPUB 222334Z AUTO 36005KT 7SM -SN SCT010 BKN020 OVC050 02/01 A2973 RMK AO2 RAB20E31SNB31 P0000 T00170006 $
Loading
Personal Weather Stations






























Interactive Weather Map New forecast layout! Learn more

10-Day Weather Forecast

Advertisements
Track Severe Weather on mobile